• Join FlightAware (Why Join?)
  • Login
  • US Flag 
03:17AM EDT


 

Airport Tracker/Info


-or-


 

Live Flight TrackerFlight Track Log ✈ UCA3597 ✈ 03-Dec-2013 ✈ KIAD - KBGM

Flight Track Log - Related Links

Times and Time Zones

All times are in EST time to prevent confusion due to time zone crossing. See the UCA3597 flight status page for this flight to view local times or setup timezone preferences in your user account.

Time Position Orientation Groundspeed Altitude Reporting Facility
EST Latitude Longitude Course Direction KTS MPH feet Rate Location/Type
06:16PM 39.5771 -77.1858 19° North  Level Estimated
06:17PM 39.6400 -77.1581 19° North  Level Estimated
06:18PM 39.7030 -77.1303 19° North  Level Estimated
06:19PM 39.7659 -77.1025 19° North  Level Estimated
06:20PM 39.8288 -77.0747 19° North  Level Estimated
06:21PM 39.8917 -77.0468 19° North  Level Estimated
06:22PM 39.9546 -77.0188 19° North  Level Estimated
06:23PM 40.0175 -76.9908 19° North  Level Estimated
06:24PM 40.0804 -76.9628 19° North  Level Estimated
06:25PM 40.1433 -76.9347 19° North  Level Estimated
06:26PM 40.2061 -76.9065 19° North  Level Estimated
06:27PM 40.2690 -76.8783 19° North  Level Estimated
06:28PM 40.3318 -76.8501 19° North  Level Estimated
06:29PM 40.3947 -76.8218 19° North  Level Estimated
06:30PM 40.4575 -76.7934 19° North  Level Estimated
06:31PM 40.5204 -76.7650 19° North  Level Estimated
06:32PM 40.5832 -76.7365 19° North  Level Estimated
06:33PM 40.6460 -76.7080 19° North  Level Estimated
06:34PM 40.7089 -76.6794 19° North  Level Estimated
06:35PM 40.7717 -76.6508 19° North  Level Estimated
06:36PM 40.8345 -76.6221 19° North  Level Estimated
06:37PM 40.8973 -76.5934 19° North  Level Estimated
06:38PM 40.9600 -76.5646 19° North  Level Estimated
06:39PM 41.0228 -76.5357 19° North  Level Estimated
06:40PM 41.0856 -76.5068 19° North  Level Estimated
06:41PM 41.1484 -76.4778 19° North  Level Estimated
06:42PM 41.2111 -76.4488 19° North  Level Estimated
06:43PM 41.2739 -76.4197 19° North  Level Estimated
06:44PM 41.3366 -76.3906 19° North  Level Estimated
06:45PM 41.3993 -76.3614 19° North  Level Estimated
06:46PM 41.4621 -76.3322 19° North  Level Estimated
06:47PM 41.5248 -76.3029 19° North  Level Estimated
06:48PM 41.5875 -76.2735 19° North  Level Estimated
06:49PM 41.6502 -76.2441 19° North  Level Estimated
06:50PM 41.7129 -76.2147 19° North  Level Estimated
06:51PM 41.7756 -76.1851 19° North  Level Estimated
06:52PM 41.8383 -76.1556 19° North  Level Estimated
06:53PM 41.9010 -76.1259 19° North  Level Estimated
06:54PM 41.9636 -76.0962 19° North  Level Estimated
06:55PM 42.0263 -76.0665 19° North  Level Estimated
06:56PM 42.0890 -76.0366 19° North  Level Estimated
06:57PM 42.1516 -76.0068 19° North  Level Estimated
06:58PM 42.2084 -75.9796 19° North  Level Estimated
06:59PM 42.2084 -75.9796 35° Northeast  Level Estimated
07:00PM 42.2084 -75.9796 35° Northeast  Level Estimated
07:01PM 42.2084 -75.9796 35° Northeast  Level Estimated
07:02PM 42.2084 -75.9796 35° Northeast  Level Estimated
07:03PM 42.2084 -75.9796 35° Northeast  Level Estimated
07:04PM 42.2084 -75.9796 35° Northeast  Level Estimated
07:05PM 42.2084 -75.9796 35° Northeast  Level Estimated
07:06PM 42.2084 -75.9796 35° Northeast  Level Estimated
07:07PM 42.2084 -75.9796 35° Northeast  Level Estimated
07:08PM 42.2084 -75.9796 35° Northeast  Level Estimated
07:09PM 42.2084 -75.9796 35° Northeast  Level Estimated
07:10PM 42.2084 -75.9796 35° Northeast  Level Estimated
07:11PM 42.2084 -75.9796 35° Northeast  Level Estimated
07:12PM 42.2084 -75.9796 35° Northeast  Level Estimated
07:13PM 42.2084 -75.9796 35° Northeast  Level Estimated
07:14PM 42.2084 -75.9796 35° Northeast  Level Estimated